sensor_id;sensor_type;location;lat;lon;timestamp;P1;durP1;ratioP1;P2;durP2;ratioP2
69847;SDS011;57143;55.940;37.496;2024-01-30T00:00:14;10.33;;;3.77;;
69847;SDS011;57143;55.940;37.496;2024-01-30T00:02:42;8.18;;;3.15;;
69847;SDS011;57143;55.940;37.496;2024-01-30T00:05:11;7.97;;;3.08;;
69847;SDS011;57143;55.940;37.496;2024-01-30T00:07:38;10.88;;;2.90;;
69847;SDS011;57143;55.940;37.496;2024-01-30T00:10:07;8.93;;;2.97;;
69847;SDS011;57143;55.940;37.496;2024-01-30T00:12:35;9.23;;;2.60;;
69847;SDS011;57143;55.940;37.496;2024-01-30T00:15:02;8.73;;;3.00;;
69847;SDS011;57143;55.940;37.496;2024-01-30T00:17:30;9.77;;;2.70;;
69847;SDS011;57143;55.940;37.496;2024-01-30T00:19:58;6.47;;;2.35;;
69847;SDS011;57143;55.940;37.496;2024-01-30T00:22:25;7.63;;;2.63;;
69847;SDS011;57143;55.940;37.496;2024-01-30T00:24:52;8.77;;;2.83;;
69847;SDS011;57143;55.940;37.496;2024-01-30T00:27:21;7.72;;;2.25;;
69847;SDS011;57143;55.940;37.496;2024-01-30T00:29:48;8.70;;;2.88;;
69847;SDS011;57143;55.940;37.496;2024-01-30T00:32:15;11.23;;;2.80;;
69847;SDS011;57143;55.940;37.496;2024-01-30T00:34:44;8.02;;;2.17;;
69847;SDS011;57143;55.940;37.496;2024-01-30T00:37:12;7.80;;;2.37;;
69847;SDS011;57143;55.940;37.496;2024-01-30T00:39:39;9.38;;;3.65;;
69847;SDS011;57143;55.940;37.496;2024-01-30T00:42:06;8.48;;;2.50;;
69847;SDS011;57143;55.940;37.496;2024-01-30T00:44:36;8.35;;;2.33;;
69847;SDS011;57143;55.940;37.496;2024-01-30T00:47:04;6.88;;;1.60;;
69847;SDS011;57143;55.940;37.496;2024-01-30T00:49:31;8.43;;;2.50;;
69847;SDS011;57143;55.940;37.496;2024-01-30T00:51:59;8.30;;;2.33;;
69847;SDS011;57143;55.940;37.496;2024-01-30T00:54:26;8.18;;;2.53;;
69847;SDS011;57143;55.940;37.496;2024-01-30T00:56:54;8.85;;;2.50;;
69847;SDS011;57143;55.940;37.496;2024-01-30T00:59:22;6.45;;;1.90;;
69847;SDS011;57143;55.940;37.496;2024-01-30T01:01:51;9.50;;;2.50;;
69847;SDS011;57143;55.940;37.496;2024-01-30T01:04:18;6.93;;;2.50;;
69847;SDS011;57143;55.940;37.496;2024-01-30T01:06:46;8.40;;;2.90;;
69847;SDS011;57143;55.940;37.496;2024-01-30T01:09:14;7.38;;;2.13;;
69847;SDS011;57143;55.940;37.496;2024-01-30T01:11:41;7.05;;;2.20;;
69847;SDS011;57143;55.940;37.496;2024-01-30T01:14:08;8.40;;;2.67;;
69847;SDS011;57143;55.940;37.496;2024-01-30T01:16:36;8.88;;;3.15;;
69847;SDS011;57143;55.940;37.496;2024-01-30T01:19:04;8.63;;;3.15;;
69847;SDS011;57143;55.940;37.496;2024-01-30T01:21:32;8.02;;;2.70;;
69847;SDS011;57143;55.940;37.496;2024-01-30T01:23:59;12.20;;;2.90;;
69847;SDS011;57143;55.940;37.496;2024-01-30T01:26:26;7.87;;;2.20;;
69847;SDS011;57143;55.940;37.496;2024-01-30T01:28:54;8.35;;;2.67;;
69847;SDS011;57143;55.940;37.496;2024-01-30T01:31:21;7.07;;;2.70;;
69847;SDS011;57143;55.940;37.496;2024-01-30T01:33:50;5.38;;;1.52;;
69847;SDS011;57143;55.940;37.496;2024-01-30T01:36:19;8.38;;;2.65;;
69847;SDS011;57143;55.940;37.496;2024-01-30T01:38:46;7.77;;;3.00;;
69847;SDS011;57143;55.940;37.496;2024-01-30T01:41:13;7.95;;;2.90;;
69847;SDS011;57143;55.940;37.496;2024-01-30T01:43:41;9.35;;;3.00;;
69847;SDS011;57143;55.940;37.496;2024-01-30T01:46:08;7.85;;;2.47;;
69847;SDS011;57143;55.940;37.496;2024-01-30T01:48:36;9.82;;;3.00;;
69847;SDS011;57143;55.940;37.496;2024-01-30T01:51:05;9.37;;;2.77;;
69847;SDS011;57143;55.940;37.496;2024-01-30T01:53:34;8.18;;;2.35;;
69847;SDS011;57143;55.940;37.496;2024-01-30T01:56:02;9.73;;;3.10;;
69847;SDS011;57143;55.940;37.496;2024-01-30T01:58:29;8.52;;;2.65;;
69847;SDS011;57143;55.940;37.496;2024-01-30T02:00:57;5.63;;;1.58;;
69847;SDS011;57143;55.940;37.496;2024-01-30T02:03:25;6.43;;;2.17;;
69847;SDS011;57143;55.940;37.496;2024-01-30T02:05:53;9.35;;;2.97;;
69847;SDS011;57143;55.940;37.496;2024-01-30T02:08:21;10.90;;;2.75;;
69847;SDS011;57143;55.940;37.496;2024-01-30T02:10:50;8.63;;;2.55;;
69847;SDS011;57143;55.940;37.496;2024-01-30T02:13:18;10.70;;;2.70;;
69847;SDS011;57143;55.940;37.496;2024-01-30T02:15:48;7.73;;;2.50;;
69847;SDS011;57143;55.940;37.496;2024-01-30T02:18:17;8.15;;;2.30;;
69847;SDS011;57143;55.940;37.496;2024-01-30T02:21:05;7.22;;;2.20;;
69847;SDS011;57143;55.940;37.496;2024-01-30T02:23:33;7.90;;;2.58;;
69847;SDS011;57143;55.940;37.496;2024-01-30T02:26:01;6.20;;;1.75;;
69847;SDS011;57143;55.940;37.496;2024-01-30T02:28:28;7.30;;;2.60;;
69847;SDS011;57143;55.940;37.496;2024-01-30T02:30:55;4.90;;;1.65;;
69847;SDS011;57143;55.940;37.496;2024-01-30T02:33:23;9.10;;;2.50;;
69847;SDS011;57143;55.940;37.496;2024-01-30T02:35:50;6.75;;;2.45;;
69847;SDS011;57143;55.940;37.496;2024-01-30T02:38:19;8.07;;;2.45;;
69847;SDS011;57143;55.940;37.496;2024-01-30T02:40:47;8.27;;;2.40;;
69847;SDS011;57143;55.940;37.496;2024-01-30T02:43:15;7.45;;;2.42;;
69847;SDS011;57143;55.940;37.496;2024-01-30T02:45:43;8.00;;;2.38;;
69847;SDS011;57143;55.940;37.496;2024-01-30T02:48:10;7.97;;;2.35;;
69847;SDS011;57143;55.940;37.496;2024-01-30T02:50:37;8.43;;;2.70;;
69847;SDS011;57143;55.940;37.496;2024-01-30T02:53:05;6.80;;;2.33;;
69847;SDS011;57143;55.940;37.496;2024-01-30T02:55:34;9.13;;;3.20;;
69847;SDS011;57143;55.940;37.496;2024-01-30T02:58:01;8.63;;;3.40;;
69847;SDS011;57143;55.940;37.496;2024-01-30T03:00:28;6.95;;;2.28;;
69847;SDS011;57143;55.940;37.496;2024-01-30T03:02:56;9.00;;;2.53;;
69847;SDS011;57143;55.940;37.496;2024-01-30T03:05:23;8.87;;;2.60;;
69847;SDS011;57143;55.940;37.496;2024-01-30T03:07:50;8.38;;;3.00;;
69847;SDS011;57143;55.940;37.496;2024-01-30T03:10:18;9.18;;;2.38;;
69847;SDS011;57143;55.940;37.496;2024-01-30T03:12:46;7.07;;;1.63;;
69847;SDS011;57143;55.940;37.496;2024-01-30T03:15:14;8.65;;;2.53;;
69847;SDS011;57143;55.940;37.496;2024-01-30T03:17:43;5.13;;;1.43;;
69847;SDS011;57143;55.940;37.496;2024-01-30T03:20:11;7.00;;;2.60;;
69847;SDS011;57143;55.940;37.496;2024-01-30T03:22:38;9.20;;;3.80;;
69847;SDS011;57143;55.940;37.496;2024-01-30T03:25:06;5.68;;;1.92;;
69847;SDS011;57143;55.940;37.496;2024-01-30T03:27:34;7.10;;;2.38;;
69847;SDS011;57143;55.940;37.496;2024-01-30T03:30:03;4.90;;;2.00;;
69847;SDS011;57143;55.940;37.496;2024-01-30T03:32:31;8.27;;;2.80;;
69847;SDS011;57143;55.940;37.496;2024-01-30T03:34:59;11.15;;;4.05;;
69847;SDS011;57143;55.940;37.496;2024-01-30T03:37:28;8.88;;;3.10;;
69847;SDS011;57143;55.940;37.496;2024-01-30T03:39:56;8.18;;;2.80;;
69847;SDS011;57143;55.940;37.496;2024-01-30T03:42:23;10.40;;;3.20;;
69847;SDS011;57143;55.940;37.496;2024-01-30T03:44:51;9.02;;;3.10;;
69847;SDS011;57143;55.940;37.496;2024-01-30T03:47:20;8.20;;;2.55;;
69847;SDS011;57143;55.940;37.496;2024-01-30T03:49:48;8.55;;;2.60;;
69847;SDS011;57143;55.940;37.496;2024-01-30T03:52:15;10.68;;;3.50;;
69847;SDS011;57143;55.940;37.496;2024-01-30T03:54:42;9.83;;;3.63;;
69847;SDS011;57143;55.940;37.496;2024-01-30T03:57:10;9.45;;;3.10;;
69847;SDS011;57143;55.940;37.496;2024-01-30T03:59:37;10.07;;;3.42;;
69847;SDS011;57143;55.940;37.496;2024-01-30T04:02:05;10.05;;;3.50;;
69847;SDS011;57143;55.940;37.496;2024-01-30T04:04:34;9.90;;;2.15;;
69847;SDS011;57143;55.940;37.496;2024-01-30T04:07:01;9.33;;;2.93;;
69847;SDS011;57143;55.940;37.496;2024-01-30T04:09:28;7.57;;;2.97;;
69847;SDS011;57143;55.940;37.496;2024-01-30T04:11:56;9.43;;;3.50;;
69847;SDS011;57143;55.940;37.496;2024-01-30T04:14:23;9.60;;;3.67;;
69847;SDS011;57143;55.940;37.496;2024-01-30T04:16:50;9.45;;;3.03;;
69847;SDS011;57143;55.940;37.496;2024-01-30T04:19:18;9.07;;;3.20;;
69847;SDS011;57143;55.940;37.496;2024-01-30T04:21:47;8.48;;;2.78;;
69847;SDS011;57143;55.940;37.496;2024-01-30T04:24:14;6.63;;;2.25;;
69847;SDS011;57143;55.940;37.496;2024-01-30T04:26:44;8.55;;;2.90;;
69847;SDS011;57143;55.940;37.496;2024-01-30T04:29:11;10.65;;;3.40;;
69847;SDS011;57143;55.940;37.496;2024-01-30T04:31:38;10.87;;;3.70;;
69847;SDS011;57143;55.940;37.496;2024-01-30T04:34:06;7.38;;;2.63;;
69847;SDS011;57143;55.940;37.496;2024-01-30T04:36:33;7.53;;;3.00;;
69847;SDS011;57143;55.940;37.496;2024-01-30T04:39:02;10.70;;;3.72;;
69847;SDS011;57143;55.940;37.496;2024-01-30T04:41:29;7.97;;;2.47;;
69847;SDS011;57143;55.940;37.496;2024-01-30T04:43:57;8.27;;;3.07;;
69847;SDS011;57143;55.940;37.496;2024-01-30T04:46:25;9.70;;;3.67;;
69847;SDS011;57143;55.940;37.496;2024-01-30T04:48:52;9.15;;;3.42;;
69847;SDS011;57143;55.940;37.496;2024-01-30T04:51:19;9.82;;;3.80;;
69847;SDS011;57143;55.940;37.496;2024-01-30T04:53:47;8.93;;;3.22;;
69847;SDS011;57143;55.940;37.496;2024-01-30T04:56:16;13.10;;;3.60;;
69847;SDS011;57143;55.940;37.496;2024-01-30T04:58:43;10.40;;;3.97;;
69847;SDS011;57143;55.940;37.496;2024-01-30T05:01:14;11.43;;;4.22;;
69847;SDS011;57143;55.940;37.496;2024-01-30T05:03:42;9.85;;;3.40;;
69847;SDS011;57143;55.940;37.496;2024-01-30T05:06:09;11.25;;;4.05;;
69847;SDS011;57143;55.940;37.496;2024-01-30T05:08:37;12.30;;;3.83;;
69847;SDS011;57143;55.940;37.496;2024-01-30T05:11:04;11.57;;;4.13;;
69847;SDS011;57143;55.940;37.496;2024-01-30T05:13:34;10.43;;;4.05;;
69847;SDS011;57143;55.940;37.496;2024-01-30T05:16:02;8.18;;;3.20;;
69847;SDS011;57143;55.940;37.496;2024-01-30T05:18:29;10.93;;;3.70;;
69847;SDS011;57143;55.940;37.496;2024-01-30T05:20:57;9.40;;;3.90;;
69847;SDS011;57143;55.940;37.496;2024-01-30T05:23:25;9.10;;;3.70;;
69847;SDS011;57143;55.940;37.496;2024-01-30T05:25:52;11.00;;;4.20;;
69847;SDS011;57143;55.940;37.496;2024-01-30T05:28:19;12.05;;;3.97;;
69847;SDS011;57143;55.940;37.496;2024-01-30T05:30:48;12.75;;;4.07;;
69847;SDS011;57143;55.940;37.496;2024-01-30T05:33:16;13.27;;;4.63;;
69847;SDS011;57143;55.940;37.496;2024-01-30T05:35:43;15.75;;;4.00;;
69847;SDS011;57143;55.940;37.496;2024-01-30T05:38:11;10.48;;;4.30;;
69847;SDS011;57143;55.940;37.496;2024-01-30T05:40:39;12.10;;;3.95;;
69847;SDS011;57143;55.940;37.496;2024-01-30T05:43:06;10.77;;;3.75;;
69847;SDS011;57143;55.940;37.496;2024-01-30T05:45:34;13.30;;;4.70;;
69847;SDS011;57143;55.940;37.496;2024-01-30T05:48:03;11.10;;;4.18;;
69847;SDS011;57143;55.940;37.496;2024-01-30T05:50:33;10.20;;;4.25;;
69847;SDS011;57143;55.940;37.496;2024-01-30T05:53:00;12.23;;;4.45;;
69847;SDS011;57143;55.940;37.496;2024-01-30T05:55:27;10.82;;;3.95;;
69847;SDS011;57143;55.940;37.496;2024-01-30T05:57:55;11.60;;;4.33;;
69847;SDS011;57143;55.940;37.496;2024-01-30T06:00:22;9.82;;;3.17;;
69847;SDS011;57143;55.940;37.496;2024-01-30T06:02:50;20.40;;;4.97;;
69847;SDS011;57143;55.940;37.496;2024-01-30T06:05:18;12.75;;;4.72;;
69847;SDS011;57143;55.940;37.496;2024-01-30T06:07:46;11.15;;;4.20;;
69847;SDS011;57143;55.940;37.496;2024-01-30T06:10:13;12.27;;;4.10;;
69847;SDS011;57143;55.940;37.496;2024-01-30T06:12:41;15.43;;;4.32;;
69847;SDS011;57143;55.940;37.496;2024-01-30T06:15:08;14.73;;;4.28;;
69847;SDS011;57143;55.940;37.496;2024-01-30T06:17:38;12.10;;;4.43;;
69847;SDS011;57143;55.940;37.496;2024-01-30T06:20:06;13.13;;;4.72;;
69847;SDS011;57143;55.940;37.496;2024-01-30T06:22:35;5.27;;;2.13;;
69847;SDS011;57143;55.940;37.496;2024-01-30T06:25:03;10.82;;;4.50;;
69847;SDS011;57143;55.940;37.496;2024-01-30T06:27:31;11.45;;;4.78;;
69847;SDS011;57143;55.940;37.496;2024-01-30T06:29:58;14.32;;;4.30;;
69847;SDS011;57143;55.940;37.496;2024-01-30T06:32:25;13.48;;;4.95;;
69847;SDS011;57143;55.940;37.496;2024-01-30T06:34:54;13.00;;;4.47;;
69847;SDS011;57143;55.940;37.496;2024-01-30T06:37:21;13.77;;;5.03;;
69847;SDS011;57143;55.940;37.496;2024-01-30T06:39:50;11.30;;;3.95;;
69847;SDS011;57143;55.940;37.496;2024-01-30T06:42:17;10.65;;;4.15;;
69847;SDS011;57143;55.940;37.496;2024-01-30T06:44:45;14.23;;;4.30;;
69847;SDS011;57143;55.940;37.496;2024-01-30T06:47:12;12.50;;;4.03;;
69847;SDS011;57143;55.940;37.496;2024-01-30T06:49:40;13.43;;;4.22;;
69847;SDS011;57143;55.940;37.496;2024-01-30T06:52:07;15.30;;;4.30;;
69847;SDS011;57143;55.940;37.496;2024-01-30T06:54:35;14.13;;;4.32;;
69847;SDS011;57143;55.940;37.496;2024-01-30T06:57:04;13.60;;;5.57;;
69847;SDS011;57143;55.940;37.496;2024-01-30T06:59:34;12.90;;;4.80;;
69847;SDS011;57143;55.940;37.496;2024-01-30T07:02:01;14.32;;;4.63;;
69847;SDS011;57143;55.940;37.496;2024-01-30T07:04:29;12.75;;;4.18;;
69847;SDS011;57143;55.940;37.496;2024-01-30T07:06:57;12.55;;;4.25;;
69847;SDS011;57143;55.940;37.496;2024-01-30T07:09:24;16.10;;;4.00;;
69847;SDS011;57143;55.940;37.496;2024-01-30T07:11:53;10.77;;;4.20;;
69847;SDS011;57143;55.940;37.496;2024-01-30T07:14:22;11.75;;;4.32;;
69847;SDS011;57143;55.940;37.496;2024-01-30T07:16:49;12.77;;;4.35;;
69847;SDS011;57143;55.940;37.496;2024-01-30T07:19:17;14.57;;;4.57;;
69847;SDS011;57143;55.940;37.496;2024-01-30T07:21:44;11.55;;;4.38;;
69847;SDS011;57143;55.940;37.496;2024-01-30T07:24:11;11.90;;;4.07;;
69847;SDS011;57143;55.940;37.496;2024-01-30T07:26:39;11.27;;;4.30;;
69847;SDS011;57143;55.940;37.496;2024-01-30T07:29:06;12.32;;;4.40;;
69847;SDS011;57143;55.940;37.496;2024-01-30T07:31:35;13.95;;;4.95;;
69847;SDS011;57143;55.940;37.496;2024-01-30T07:34:03;14.65;;;5.35;;
69847;SDS011;57143;55.940;37.496;2024-01-30T07:36:30;14.90;;;5.03;;
69847;SDS011;57143;55.940;37.496;2024-01-30T07:38:59;12.10;;;4.53;;
69847;SDS011;57143;55.940;37.496;2024-01-30T07:41:29;12.73;;;4.88;;
69847;SDS011;57143;55.940;37.496;2024-01-30T07:43:57;11.48;;;3.92;;
69847;SDS011;57143;55.940;37.496;2024-01-30T07:46:24;11.63;;;3.85;;
69847;SDS011;57143;55.940;37.496;2024-01-30T07:48:53;13.30;;;5.00;;
69847;SDS011;57143;55.940;37.496;2024-01-30T07:51:21;13.88;;;4.78;;
69847;SDS011;57143;55.940;37.496;2024-01-30T07:53:51;12.88;;;4.50;;
69847;SDS011;57143;55.940;37.496;2024-01-30T07:56:18;12.80;;;4.40;;
69847;SDS011;57143;55.940;37.496;2024-01-30T07:58:46;12.35;;;4.63;;
69847;SDS011;57143;55.940;37.496;2024-01-30T08:01:14;13.07;;;4.77;;
69847;SDS011;57143;55.940;37.496;2024-01-30T08:03:41;13.20;;;4.13;;
69847;SDS011;57143;55.940;37.496;2024-01-30T08:06:10;11.48;;;4.45;;
69847;SDS011;57143;55.940;37.496;2024-01-30T08:08:38;15.23;;;5.05;;
69847;SDS011;57143;55.940;37.496;2024-01-30T08:11:05;13.15;;;5.03;;
69847;SDS011;57143;55.940;37.496;2024-01-30T08:13:33;13.03;;;5.47;;
69847;SDS011;57143;55.940;37.496;2024-01-30T08:16:00;11.80;;;4.30;;
69847;SDS011;57143;55.940;37.496;2024-01-30T08:18:27;13.18;;;4.38;;
69847;SDS011;57143;55.940;37.496;2024-01-30T08:20:55;11.75;;;4.65;;
69847;SDS011;57143;55.940;37.496;2024-01-30T08:23:24;12.15;;;4.93;;
69847;SDS011;57143;55.940;37.496;2024-01-30T08:25:54;14.43;;;5.27;;
69847;SDS011;57143;55.940;37.496;2024-01-30T08:28:21;11.18;;;5.32;;
69847;SDS011;57143;55.940;37.496;2024-01-30T08:30:49;11.45;;;4.63;;
69847;SDS011;57143;55.940;37.496;2024-01-30T08:33:16;10.95;;;4.28;;
69847;SDS011;57143;55.940;37.496;2024-01-30T08:35:43;14.80;;;4.50;;
69847;SDS011;57143;55.940;37.496;2024-01-30T08:38:11;12.97;;;4.57;;
69847;SDS011;57143;55.940;37.496;2024-01-30T08:40:40;12.60;;;4.95;;
69847;SDS011;57143;55.940;37.496;2024-01-30T08:43:07;15.30;;;5.60;;
69847;SDS011;57143;55.940;37.496;2024-01-30T08:45:35;12.75;;;4.90;;
69847;SDS011;57143;55.940;37.496;2024-01-30T08:48:03;11.75;;;4.40;;
69847;SDS011;57143;55.940;37.496;2024-01-30T08:50:30;19.73;;;5.03;;
69847;SDS011;57143;55.940;37.496;2024-01-30T08:52:58;12.40;;;4.70;;
69847;SDS011;57143;55.940;37.496;2024-01-30T08:55:25;10.52;;;4.47;;
69847;SDS011;57143;55.940;37.496;2024-01-30T08:57:54;13.27;;;5.45;;
69847;SDS011;57143;55.940;37.496;2024-01-30T09:00:22;14.27;;;4.90;;
69847;SDS011;57143;55.940;37.496;2024-01-30T09:02:49;15.43;;;4.50;;
69847;SDS011;57143;55.940;37.496;2024-01-30T09:05:16;11.02;;;4.00;;
69847;SDS011;57143;55.940;37.496;2024-01-30T09:07:44;12.60;;;4.75;;
69847;SDS011;57143;55.940;37.496;2024-01-30T09:10:11;11.82;;;4.18;;
69847;SDS011;57143;55.940;37.496;2024-01-30T09:12:39;13.02;;;5.13;;
69847;SDS011;57143;55.940;37.496;2024-01-30T09:15:08;12.73;;;4.60;;
69847;SDS011;57143;55.940;37.496;2024-01-30T09:17:36;13.05;;;5.32;;
69847;SDS011;57143;55.940;37.496;2024-01-30T09:20:04;12.30;;;5.15;;
69847;SDS011;57143;55.940;37.496;2024-01-30T09:22:32;12.93;;;5.03;;
69847;SDS011;57143;55.940;37.496;2024-01-30T09:24:59;12.77;;;5.53;;
69847;SDS011;57143;55.940;37.496;2024-01-30T09:27:29;14.60;;;5.53;;
69847;SDS011;57143;55.940;37.496;2024-01-30T09:29:56;13.57;;;5.32;;
69847;SDS011;57143;55.940;37.496;2024-01-30T09:32:25;10.18;;;4.38;;
69847;SDS011;57143;55.940;37.496;2024-01-30T09:34:52;15.57;;;5.57;;
69847;SDS011;57143;55.940;37.496;2024-01-30T09:37:20;14.15;;;5.45;;
69847;SDS011;57143;55.940;37.496;2024-01-30T09:39:47;15.50;;;4.77;;
69847;SDS011;57143;55.940;37.496;2024-01-30T09:42:17;14.80;;;4.30;;
69847;SDS011;57143;55.940;37.496;2024-01-30T09:44:54;16.58;;;5.03;;
69847;SDS011;57143;55.940;37.496;2024-01-30T09:47:22;14.10;;;5.38;;
69847;SDS011;57143;55.940;37.496;2024-01-30T09:49:52;14.48;;;4.65;;
69847;SDS011;57143;55.940;37.496;2024-01-30T09:52:19;14.93;;;5.80;;
69847;SDS011;57143;55.940;37.496;2024-01-30T09:54:47;14.57;;;5.40;;
69847;SDS011;57143;55.940;37.496;2024-01-30T09:57:17;14.75;;;5.32;;
69847;SDS011;57143;55.940;37.496;2024-01-30T09:59:46;14.75;;;5.20;;
69847;SDS011;57143;55.940;37.496;2024-01-30T10:02:13;14.52;;;5.20;;
69847;SDS011;57143;55.940;37.496;2024-01-30T10:04:43;15.53;;;5.77;;
69847;SDS011;57143;55.940;37.496;2024-01-30T10:07:10;13.80;;;5.30;;
69847;SDS011;57143;55.940;37.496;2024-01-30T10:09:38;14.27;;;5.00;;
69847;SDS011;57143;55.940;37.496;2024-01-30T10:12:05;15.05;;;5.20;;
69847;SDS011;57143;55.940;37.496;2024-01-30T10:14:33;11.38;;;4.63;;
69847;SDS011;57143;55.940;37.496;2024-01-30T10:17:04;12.77;;;5.10;;
69847;SDS011;57143;55.940;37.496;2024-01-30T10:19:32;15.27;;;6.15;;
69847;SDS011;57143;55.940;37.496;2024-01-30T10:22:01;14.32;;;5.85;;
69847;SDS011;57143;55.940;37.496;2024-01-30T10:24:28;16.35;;;5.57;;
69847;SDS011;57143;55.940;37.496;2024-01-30T10:26:56;13.77;;;5.47;;
69847;SDS011;57143;55.940;37.496;2024-01-30T10:29:24;14.83;;;6.13;;
69847;SDS011;57143;55.940;37.496;2024-01-30T10:31:57;14.73;;;5.82;;
69847;SDS011;57143;55.940;37.496;2024-01-30T10:34:26;11.95;;;5.15;;
69847;SDS011;57143;55.940;37.496;2024-01-30T10:36:56;12.63;;;5.45;;
69847;SDS011;57143;55.940;37.496;2024-01-30T10:39:32;14.50;;;5.70;;
69847;SDS011;57143;55.940;37.496;2024-01-30T10:42:04;15.23;;;5.70;;
69847;SDS011;57143;55.940;37.496;2024-01-30T10:44:34;13.18;;;5.28;;
69847;SDS011;57143;55.940;37.496;2024-01-30T10:47:06;13.38;;;5.45;;
69847;SDS011;57143;55.940;37.496;2024-01-30T10:49:38;16.35;;;5.70;;
69847;SDS011;57143;55.940;37.496;2024-01-30T10:52:09;15.25;;;5.55;;
69847;SDS011;57143;55.940;37.496;2024-01-30T10:54:40;11.00;;;4.70;;
69847;SDS011;57143;55.940;37.496;2024-01-30T10:57:10;15.85;;;5.65;;
69847;SDS011;57143;55.940;37.496;2024-01-30T10:59:39;17.17;;;6.40;;
69847;SDS011;57143;55.940;37.496;2024-01-30T11:02:08;17.20;;;5.88;;
69847;SDS011;57143;55.940;37.496;2024-01-30T11:04:40;15.10;;;5.78;;
69847;SDS011;57143;55.940;37.496;2024-01-30T11:07:15;15.87;;;5.27;;
69847;SDS011;57143;55.940;37.496;2024-01-30T11:09:49;20.65;;;5.93;;
69847;SDS011;57143;55.940;37.496;2024-01-30T11:12:20;13.55;;;5.68;;
69847;SDS011;57143;55.940;37.496;2024-01-30T11:14:48;18.90;;;5.63;;
69847;SDS011;57143;55.940;37.496;2024-01-30T11:17:16;14.48;;;5.55;;
69847;SDS011;57143;55.940;37.496;2024-01-30T11:19:44;15.63;;;6.30;;
69847;SDS011;57143;55.940;37.496;2024-01-30T11:22:13;14.90;;;5.57;;
69847;SDS011;57143;55.940;37.496;2024-01-30T11:24:42;15.75;;;5.50;;
69847;SDS011;57143;55.940;37.496;2024-01-30T11:27:10;18.02;;;5.40;;
69847;SDS011;57143;55.940;37.496;2024-01-30T11:29:38;16.92;;;5.50;;
69847;SDS011;57143;55.940;37.496;2024-01-30T11:32:07;14.23;;;5.47;;
69847;SDS011;57143;55.940;37.496;2024-01-30T11:34:34;18.67;;;6.53;;
69847;SDS011;57143;55.940;37.496;2024-01-30T11:37:07;15.00;;;5.82;;
69847;SDS011;57143;55.940;37.496;2024-01-30T11:39:38;16.50;;;6.20;;
69847;SDS011;57143;55.940;37.496;2024-01-30T11:42:08;12.13;;;5.30;;
69847;SDS011;57143;55.940;37.496;2024-01-30T11:44:35;11.87;;;4.50;;
69847;SDS011;57143;55.940;37.496;2024-01-30T11:47:03;11.65;;;4.80;;
69847;SDS011;57143;55.940;37.496;2024-01-30T11:49:30;13.13;;;5.32;;
69847;SDS011;57143;55.940;37.496;2024-01-30T11:51:58;16.25;;;5.80;;
69847;SDS011;57143;55.940;37.496;2024-01-30T11:54:25;17.13;;;6.18;;
69847;SDS011;57143;55.940;37.496;2024-01-30T11:56:53;14.60;;;5.40;;
69847;SDS011;57143;55.940;37.496;2024-01-30T11:59:21;10.63;;;4.85;;
69847;SDS011;57143;55.940;37.496;2024-01-30T12:01:51;15.18;;;5.80;;
69847;SDS011;57143;55.940;37.496;2024-01-30T12:04:18;12.30;;;4.93;;
69847;SDS011;57143;55.940;37.496;2024-01-30T12:06:46;15.15;;;5.53;;
69847;SDS011;57143;55.940;37.496;2024-01-30T12:09:18;13.73;;;5.47;;
69847;SDS011;57143;55.940;37.496;2024-01-30T12:11:45;16.65;;;5.18;;
69847;SDS011;57143;55.940;37.496;2024-01-30T12:14:13;10.95;;;4.45;;
69847;SDS011;57143;55.940;37.496;2024-01-30T12:16:43;14.95;;;5.70;;
69847;SDS011;57143;55.940;37.496;2024-01-30T12:19:13;12.65;;;5.05;;
69847;SDS011;57143;55.940;37.496;2024-01-30T12:21:53;16.43;;;5.80;;
69847;SDS011;57143;55.940;37.496;2024-01-30T12:24:22;12.50;;;5.03;;
69847;SDS011;57143;55.940;37.496;2024-01-30T12:26:49;13.77;;;6.10;;
69847;SDS011;57143;55.940;37.496;2024-01-30T12:29:19;10.93;;;4.18;;
69847;SDS011;57143;55.940;37.496;2024-01-30T12:31:48;18.08;;;6.88;;
69847;SDS011;57143;55.940;37.496;2024-01-30T12:34:20;11.00;;;3.90;;
69847;SDS011;57143;55.940;37.496;2024-01-30T12:36:47;14.43;;;5.22;;
69847;SDS011;57143;55.940;37.496;2024-01-30T12:39:15;14.15;;;5.28;;
69847;SDS011;57143;55.940;37.496;2024-01-30T12:41:43;15.70;;;5.00;;
69847;SDS011;57143;55.940;37.496;2024-01-30T12:44:10;14.73;;;5.20;;
69847;SDS011;57143;55.940;37.496;2024-01-30T12:46:37;15.20;;;4.87;;
69847;SDS011;57143;55.940;37.496;2024-01-30T12:49:07;14.70;;;5.18;;
69847;SDS011;57143;55.940;37.496;2024-01-30T12:51:34;13.77;;;4.68;;
69847;SDS011;57143;55.940;37.496;2024-01-30T12:54:04;15.35;;;6.35;;
69847;SDS011;57143;55.940;37.496;2024-01-30T12:56:32;17.48;;;6.32;;
69847;SDS011;57143;55.940;37.496;2024-01-30T12:59:00;16.37;;;6.40;;
69847;SDS011;57143;55.940;37.496;2024-01-30T13:01:27;17.30;;;5.78;;
69847;SDS011;57143;55.940;37.496;2024-01-30T13:03:55;13.32;;;5.43;;
69847;SDS011;57143;55.940;37.496;2024-01-30T13:06:25;18.75;;;5.97;;
69847;SDS011;57143;55.940;37.496;2024-01-30T13:08:52;14.88;;;5.75;;
69847;SDS011;57143;55.940;37.496;2024-01-30T13:11:20;18.63;;;6.63;;
69847;SDS011;57143;55.940;37.496;2024-01-30T13:13:47;13.02;;;5.15;;
69847;SDS011;57143;55.940;37.496;2024-01-30T13:16:14;17.35;;;5.82;;
69847;SDS011;57143;55.940;37.496;2024-01-30T13:18:42;12.75;;;4.47;;
69847;SDS011;57143;55.940;37.496;2024-01-30T13:21:10;14.73;;;5.68;;
69847;SDS011;57143;55.940;37.496;2024-01-30T13:23:39;18.03;;;5.80;;
69847;SDS011;57143;55.940;37.496;2024-01-30T13:26:06;14.38;;;5.88;;
69847;SDS011;57143;55.940;37.496;2024-01-30T13:28:33;15.40;;;5.60;;
69847;SDS011;57143;55.940;37.496;2024-01-30T13:31:01;14.70;;;5.63;;
69847;SDS011;57143;55.940;37.496;2024-01-30T13:33:28;14.80;;;5.43;;
69847;SDS011;57143;55.940;37.496;2024-01-30T13:35:55;17.07;;;6.43;;
69847;SDS011;57143;55.940;37.496;2024-01-30T13:38:23;15.38;;;6.20;;
69847;SDS011;57143;55.940;37.496;2024-01-30T13:40:52;14.57;;;5.32;;
69847;SDS011;57143;55.940;37.496;2024-01-30T13:43:19;14.27;;;5.20;;
69847;SDS011;57143;55.940;37.496;2024-01-30T13:45:47;23.65;;;6.30;;
69847;SDS011;57143;55.940;37.496;2024-01-30T13:48:14;13.67;;;5.63;;
69847;SDS011;57143;55.940;37.496;2024-01-30T13:50:41;13.80;;;5.53;;
69847;SDS011;57143;55.940;37.496;2024-01-30T13:53:08;16.80;;;6.07;;
69847;SDS011;57143;55.940;37.496;2024-01-30T13:55:37;16.63;;;5.80;;
69847;SDS011;57143;55.940;37.496;2024-01-30T13:58:06;15.80;;;5.90;;
69847;SDS011;57143;55.940;37.496;2024-01-30T14:00:33;16.30;;;5.63;;
69847;SDS011;57143;55.940;37.496;2024-01-30T14:03:01;15.60;;;5.43;;
69847;SDS011;57143;55.940;37.496;2024-01-30T14:05:28;13.88;;;5.88;;
69847;SDS011;57143;55.940;37.496;2024-01-30T14:07:56;16.98;;;6.15;;
69847;SDS011;57143;55.940;37.496;2024-01-30T14:10:24;16.67;;;6.20;;
69847;SDS011;57143;55.940;37.496;2024-01-30T14:12:52;16.20;;;5.80;;
69847;SDS011;57143;55.940;37.496;2024-01-30T14:15:20;15.68;;;5.95;;
69847;SDS011;57143;55.940;37.496;2024-01-30T14:17:48;12.88;;;5.05;;
69847;SDS011;57143;55.940;37.496;2024-01-30T14:20:15;16.50;;;5.63;;
69847;SDS011;57143;55.940;37.496;2024-01-30T14:22:43;14.95;;;5.75;;
69847;SDS011;57143;55.940;37.496;2024-01-30T14:25:10;16.80;;;6.30;;
69847;SDS011;57143;55.940;37.496;2024-01-30T14:27:41;21.27;;;6.85;;
69847;SDS011;57143;55.940;37.496;2024-01-30T14:30:08;16.65;;;6.47;;